createdAt,value
2023-08-01T00:00:59.755Z,95735.59
2023-08-01T00:03:26.888Z,95732.94
2023-08-01T00:05:53.291Z,95733.97
2023-08-01T00:08:19.676Z,95729.16
2023-08-01T00:10:46.383Z,95733.72
2023-08-01T00:13:12.870Z,95726.47
2023-08-01T00:15:41.691Z,95703.13
2023-08-01T00:18:08.967Z,95719.22
2023-08-01T00:20:35.384Z,95709.28
2023-08-01T00:23:01.826Z,95706.88
2023-08-01T00:25:28.867Z,95712.50
2023-08-01T00:27:55.238Z,95698.00
2023-08-01T00:30:21.667Z,95694.78
2023-08-01T00:32:48.461Z,95687.81
2023-08-01T00:35:14.943Z,95693.44
2023-08-01T00:37:41.318Z,95686.47
2023-08-01T00:40:09.396Z,95684.06
2023-08-01T00:42:39.402Z,95660.44
2023-08-01T00:45:06.856Z,95636.31
2023-08-01T00:47:34.404Z,95638.44
2023-08-01T00:50:02.347Z,95637.09
2023-08-01T00:52:28.852Z,95634.94
2023-08-01T00:54:56.159Z,95625.50
2023-08-01T00:57:22.620Z,95618.28
2023-08-01T00:59:49.075Z,95624.44
2023-08-01T01:02:15.948Z,95615.56
2023-08-01T01:04:42.379Z,95613.13
2023-08-01T01:07:09.790Z,95606.69
2023-08-01T01:09:36.496Z,95586.88
2023-08-01T01:12:03.190Z,95583.34
2023-08-01T01:14:30.175Z,95564.31
2023-08-01T01:16:57.259Z,95554.13
2023-08-01T01:19:23.754Z,95550.41
2023-08-01T01:22:18.408Z,95543.41
2023-08-01T01:24:46.347Z,95540.72
2023-08-01T01:27:13.676Z,95525.19
2023-08-01T01:29:41.899Z,95517.66
2023-08-01T01:32:08.859Z,95513.63
2023-08-01T01:34:35.253Z,95506.94
2023-08-01T01:37:02.026Z,95499.44
2023-08-01T01:39:28.398Z,95500.50
2023-08-01T01:41:54.844Z,95493.00
2023-08-01T01:44:21.668Z,95493.00
2023-08-01T01:46:50.467Z,95501.03
2023-08-01T01:49:17.092Z,95501.31
2023-08-01T01:51:44.158Z,95499.19
2023-08-01T01:54:10.547Z,95494.91
2023-08-01T01:56:37.178Z,95502.16
2023-08-01T01:59:04.190Z,95499.97
2023-08-01T02:01:30.584Z,95496.19
2023-08-01T02:03:56.937Z,95501.84
2023-08-01T02:06:23.714Z,95479.84
2023-08-01T02:08:50.589Z,95471.00
2023-08-01T02:11:16.989Z,95484.97
2023-08-01T02:13:43.454Z,95496.75
2023-08-01T02:16:10.104Z,95513.66
2023-08-01T02:18:36.559Z,95510.69
2023-08-01T02:21:02.970Z,95526.22
2023-08-01T02:23:30.422Z,95528.94
2023-08-01T02:25:56.790Z,95538.84
2023-08-01T02:28:23.209Z,95549.06
2023-08-01T02:30:51.889Z,95571.03
2023-08-01T02:33:18.388Z,95589.53
2023-08-01T02:35:44.845Z,95610.97
2023-08-01T02:38:11.969Z,95625.50
2023-08-01T02:40:38.474Z,95645.06
2023-08-01T02:43:04.896Z,95648.78
2023-08-01T02:45:31.555Z,95652.50
2023-08-01T02:47:58.615Z,95636.72
2023-08-01T02:50:25.168Z,95628.91
2023-08-01T02:52:51.986Z,95618.44
2023-08-01T02:55:18.367Z,95622.44
2023-08-01T02:57:45.079Z,95617.34
2023-08-01T03:00:13.067Z,95610.66
2023-08-01T03:02:40.503Z,95601.25
2023-08-01T03:05:08.950Z,95570.19
2023-08-01T03:07:36.014Z,95552.50
2023-08-01T03:10:03.265Z,95543.38
2023-08-01T03:12:29.704Z,95545.50
2023-08-01T03:14:56.725Z,95544.16
2023-08-01T03:17:23.107Z,95545.78
2023-08-01T03:19:50.133Z,95540.94
2023-08-01T03:22:18.057Z,95537.47
2023-08-01T03:24:44.527Z,95509.03
2023-08-01T03:27:11.076Z,95508.50
2023-08-01T03:29:37.993Z,95505.81
2023-08-01T03:32:05.069Z,95489.19
2023-08-01T03:34:31.565Z,95479.81
2023-08-01T03:36:59.014Z,95467.22
2023-08-01T03:39:25.460Z,95454.63
2023-08-01T03:41:52.002Z,95452.22
2023-08-01T03:44:18.958Z,95438.00
2023-08-01T03:46:45.357Z,95430.78
2023-08-01T03:49:11.768Z,95435.59
2023-08-01T03:51:38.766Z,95427.56
2023-08-01T03:54:13.390Z,95412.25
2023-08-01T03:56:44.985Z,95409.34
2023-08-01T03:59:16.717Z,95401.81
2023-08-01T04:01:44.222Z,95404.78
2023-08-01T04:04:11.330Z,95398.63
2023-08-01T04:06:38.646Z,95399.69
2023-08-01T04:09:05.846Z,95400.47
2023-08-01T04:11:32.225Z,95402.06
2023-08-01T04:13:58.688Z,95405.03
2023-08-01T04:16:25.902Z,95406.63
2023-08-01T04:18:52.323Z,95407.69
2023-08-01T04:21:19.306Z,95408.53
2023-08-01T04:23:46.111Z,95408.78
2023-08-01T04:26:13.204Z,95418.72
2023-08-01T04:28:39.623Z,95413.88
2023-08-01T04:31:06.124Z,95417.38
2023-08-01T04:33:32.891Z,95425.13
2023-08-01T04:35:59.373Z,95436.38
2023-08-01T04:38:26.196Z,95425.94
2023-08-01T04:40:52.578Z,95439.34
2023-08-01T04:43:18.952Z,95431.56
2023-08-01T04:45:46.786Z,95429.16
2023-08-01T04:48:13.159Z,95426.19
2023-08-01T04:50:39.517Z,95426.47
2023-08-01T04:53:08.113Z,95436.91
2023-08-01T04:55:34.598Z,95436.13
2023-08-01T04:58:01.006Z,95413.09
2023-08-01T05:00:27.708Z,95411.47
2023-08-01T05:02:54.156Z,95408.25
2023-08-01T05:05:20.979Z,95395.13
2023-08-01T05:10:17.692Z,95394.59
2023-08-01T05:12:44.682Z,95395.41
2023-08-01T05:15:11.531Z,95377.16
2023-08-01T05:17:38.017Z,95378.78
2023-08-01T05:20:05.835Z,95361.63
2023-08-01T05:22:32.638Z,95355.22
2023-08-01T05:24:59.384Z,95349.59
2023-08-01T05:27:26.074Z,95341.53
2023-08-01T05:29:52.442Z,95333.22
2023-08-01T05:32:18.919Z,95332.69
2023-08-01T05:34:45.867Z,95323.59
2023-08-01T05:37:12.792Z,95313.41
2023-08-01T05:39:39.877Z,95307.53
2023-08-01T05:42:09.505Z,95303.78
2023-08-01T05:44:36.421Z,95314.50
2023-08-01T05:47:02.966Z,95332.44
2023-08-01T05:49:30.872Z,95322.78
2023-08-01T05:51:58.376Z,95317.16
2023-08-01T05:54:24.837Z,95328.66
2023-08-01T05:56:51.407Z,95326.25
2023-08-01T05:59:18.677Z,95327.88
2023-08-01T06:01:45.209Z,95325.44
2023-08-01T06:04:11.712Z,95340.19
2023-08-01T06:06:39.005Z,95339.63
2023-08-01T06:09:05.998Z,95335.38
2023-08-01T06:11:34.373Z,95333.22
2023-08-01T06:14:00.784Z,95325.66
2023-08-01T06:16:28.240Z,95346.56
2023-08-01T06:18:54.936Z,95350.03
2023-08-01T06:21:21.362Z,95348.09
2023-08-01T06:23:48.375Z,95372.00
2023-08-01T06:26:16.392Z,95390.22
2023-08-01T06:28:43.244Z,95405.72
2023-08-01T06:31:10.585Z,95441.69
2023-08-01T06:33:37.019Z,95469.31
2023-08-01T06:36:03.655Z,95529.44
2023-08-01T06:38:30.402Z,95552.50
2023-08-01T06:40:57.238Z,95614.28
2023-08-01T06:43:25.619Z,95660.75
2023-08-01T06:45:52.147Z,95663.72
2023-08-01T06:48:19.160Z,95682.50
2023-08-01T06:50:45.530Z,95688.94
2023-08-01T06:53:12.057Z,95693.25
2023-08-01T06:55:39.022Z,95670.94
2023-08-01T06:58:06.734Z,95610.81
2023-08-01T07:00:33.104Z,95537.53
2023-08-01T07:03:00.156Z,95520.63
2023-08-01T07:05:26.632Z,95493.53
2023-08-01T07:07:53.030Z,95448.97
2023-08-01T07:10:19.490Z,95377.59
2023-08-01T07:12:45.905Z,95352.88
2023-08-01T07:15:12.267Z,95296.53
2023-08-01T07:17:38.853Z,95219.50
2023-08-01T07:20:05.678Z,95124.22
2023-08-01T07:22:32.045Z,95106.25
2023-08-01T07:24:59.042Z,95068.59
2023-08-01T07:27:25.442Z,94996.41
2023-08-01T07:29:51.818Z,94961.53
2023-08-01T07:32:18.832Z,94923.66
2023-08-01T07:34:45.802Z,94889.56
2023-08-01T07:37:12.245Z,94880.97
2023-08-01T07:39:39.242Z,94868.59
2023-08-01T07:42:05.758Z,94845.00
2023-08-01T07:44:32.282Z,94832.84
2023-08-01T07:46:59.418Z,94846.50
2023-08-01T07:49:25.808Z,94825.66
2023-08-01T07:51:52.304Z,94835.47
2023-08-01T07:54:18.731Z,94830.56
2023-08-01T07:56:45.253Z,94815.56
2023-08-01T07:59:11.802Z,94810.81
2023-08-01T08:01:38.555Z,94797.53
2023-08-01T08:04:05.149Z,94789.97
2023-08-01T08:06:32.145Z,94820.19
2023-08-01T08:08:59.024Z,94820.28
2023-08-01T08:11:25.515Z,94843.31
2023-08-01T08:13:51.897Z,94833.97
2023-08-01T08:16:18.825Z,94822.88
2023-08-01T08:18:45.417Z,94752.69
2023-08-01T08:21:11.797Z,94712.50
2023-08-01T08:23:39.610Z,94654.66
2023-08-01T08:26:06.677Z,94562.78
2023-08-01T08:28:34.725Z,94555.69
2023-08-01T08:31:05.916Z,94539.50
2023-08-01T08:33:32.676Z,94524.69
2023-08-01T08:35:59.108Z,94511.81
2023-08-01T08:38:26.060Z,94486.34
2023-08-01T08:41:11.328Z,94518.00
2023-08-01T08:43:38.716Z,94572.06
2023-08-01T08:46:06.265Z,94643.47
2023-08-01T08:48:33.720Z,94702.41
2023-08-01T08:51:02.778Z,94731.72
2023-08-01T08:53:31.218Z,94774.16
2023-08-01T08:55:58.362Z,94844.94
2023-08-01T08:58:25.508Z,94958.97
2023-08-01T09:00:52.539Z,95028.13
2023-08-01T09:03:20.301Z,95076.41
2023-08-01T09:05:51.498Z,95093.13
2023-08-01T09:08:22.720Z,95166.53
2023-08-01T09:10:49.197Z,95257.13
2023-08-01T09:13:16.391Z,95315.53
2023-08-01T09:15:46.108Z,95454.84
2023-08-01T09:18:12.548Z,95556.59
2023-08-01T09:20:48.125Z,95776.34
2023-08-01T09:23:15.375Z,95808.28
2023-08-01T09:25:42.383Z,95817.16
2023-08-01T09:28:24.854Z,95820.03
2023-08-01T09:30:56.533Z,95801.03
2023-08-01T09:33:23.407Z,95767.00
2023-08-01T09:35:53.808Z,95754.38
2023-08-01T09:38:22.644Z,95733.72
2023-08-01T09:40:51.152Z,95730.81
2023-08-01T09:43:19.005Z,95723.63
2023-08-01T09:45:55.680Z,95706.47
2023-08-01T09:48:27.338Z,95720.50
2023-08-01T09:51:08.052Z,95741.75
2023-08-01T09:53:35.422Z,95745.13
2023-08-01T09:56:05.543Z,95731.44
2023-08-01T09:58:36.101Z,95749.78
2023-08-01T10:01:03.136Z,95743.53
2023-08-01T10:03:30.407Z,95748.88
2023-08-01T10:05:58.304Z,95770.56
2023-08-01T10:08:26.099Z,95779.97
2023-08-01T10:10:53.876Z,95776.81
2023-08-01T10:13:22.082Z,95791.25
2023-08-01T10:15:48.944Z,95787.53
2023-08-01T10:18:16.502Z,95789.09
2023-08-01T10:20:44.742Z,95795.47
2023-08-01T10:23:12.894Z,95788.13
2023-08-01T10:25:40.688Z,95784.38
2023-08-01T10:28:08.449Z,95770.22
2023-08-01T10:30:34.885Z,95781.47
2023-08-01T10:33:01.518Z,95789.25
2023-08-01T10:35:34.491Z,95795.66
2023-08-01T10:38:11.877Z,95789.13
2023-08-01T10:40:44.141Z,95795.94
2023-08-01T10:43:24.244Z,95799.72
2023-08-01T10:46:03.640Z,95821.56
2023-08-01T10:48:30.672Z,95526.13
2023-08-01T10:50:58.106Z,95445.72
2023-08-01T10:53:25.225Z,95390.53
2023-08-01T10:55:51.596Z,95387.38
2023-08-01T10:58:18.063Z,95374.75
2023-08-01T11:00:45.091Z,95369.13
2023-08-01T11:03:11.654Z,95377.97
2023-08-01T11:05:38.274Z,95403.44
2023-08-01T11:08:05.166Z,95368.50
2023-08-01T11:10:33.169Z,95349.25
2023-08-01T11:13:00.679Z,95348.97
2023-08-01T11:15:27.423Z,95352.25
2023-08-01T11:17:55.668Z,95361.34
2023-08-01T11:20:24.950Z,95370.22
2023-08-01T11:22:55.955Z,95371.28
2023-08-01T11:25:35.282Z,95379.31
2023-08-01T11:28:09.413Z,95384.38
2023-08-01T11:30:36.621Z,95402.63
2023-08-01T11:33:13.964Z,95396.16
2023-08-01T11:35:41.388Z,95399.13
2023-08-01T11:38:08.174Z,95401.81
2023-08-01T11:40:35.670Z,95398.59
2023-08-01T11:43:02.120Z,95401.28
2023-08-01T11:45:28.719Z,95421.13
2023-08-01T11:47:56.085Z,95419.78
2023-08-01T11:50:24.338Z,95408.28
2023-08-01T11:52:50.969Z,95431.56
2023-08-01T11:55:26.787Z,95435.63
2023-08-01T11:57:57.590Z,95448.47
2023-08-01T12:00:29.381Z,95445.19
2023-08-01T12:03:06.977Z,95480.13
2023-08-01T12:05:35.077Z,95498.31
2023-08-01T12:08:15.304Z,95521.31
2023-08-01T12:10:44.628Z,95534.50
2023-08-01T12:13:24.442Z,95544.91
2023-08-01T12:15:53.144Z,95545.72
2023-08-01T12:20:57.951Z,95598.94
2023-08-01T12:23:24.365Z,95577.06
2023-08-01T12:25:50.819Z,95622.22
2023-08-01T12:28:18.291Z,95683.28
2023-08-01T12:30:45.434Z,95708.75
2023-08-01T12:33:11.926Z,95735.16
2023-08-01T12:35:43.447Z,95686.81
2023-08-01T12:38:10.490Z,95479.63
2023-08-01T12:40:37.227Z,95310.88
2023-08-01T12:43:04.088Z,95076.63
2023-08-01T12:45:30.548Z,94945.94
2023-08-01T12:47:57.021Z,94861.13
2023-08-01T12:50:23.853Z,94704.00
2023-08-01T12:52:50.246Z,94685.88
2023-08-01T12:55:16.924Z,94734.59
2023-08-01T12:57:44.910Z,94727.91
2023-08-01T13:00:11.730Z,94696.94
2023-08-01T13:02:38.751Z,94629.31
2023-08-01T13:05:06.560Z,94617.28
2023-08-01T13:07:33.600Z,94557.50
2023-08-01T13:10:00.446Z,94498.38
2023-08-01T13:12:27.254Z,94459.00
2023-08-01T13:14:58.104Z,94441.00
2023-08-01T13:17:30.838Z,94375.91
2023-08-01T13:19:57.214Z,94334.66
2023-08-01T13:22:23.752Z,94321.19
2023-08-01T13:24:50.621Z,94283.19
2023-08-01T13:27:17.017Z,94173.31
2023-08-01T13:29:43.377Z,94188.59
2023-08-01T13:32:10.224Z,94143.72
2023-08-01T13:34:36.627Z,94082.81
2023-08-01T13:37:03.215Z,94080.09
2023-08-01T13:39:30.191Z,94066.28
2023-08-01T13:41:56.584Z,94060.06
2023-08-01T13:44:22.938Z,94057.03
2023-08-01T13:46:50.406Z,94108.00
2023-08-01T13:49:17.134Z,94126.25
2023-08-01T13:51:43.582Z,94127.38
2023-08-01T13:54:10.822Z,94114.41
2023-08-01T13:56:39.266Z,94174.09
2023-08-01T13:59:06.128Z,94175.41
2023-08-01T14:01:33.446Z,94208.22
2023-08-01T14:03:59.941Z,94186.19
2023-08-01T14:06:26.592Z,94192.66
2023-08-01T14:08:53.213Z,94199.53
2023-08-01T14:11:19.582Z,94227.28
2023-08-01T14:13:45.929Z,94242.94
2023-08-01T14:16:12.708Z,94247.66
2023-08-01T14:18:39.760Z,94266.69
2023-08-01T14:21:06.637Z,94292.91
2023-08-01T14:23:33.381Z,94328.75
2023-08-01T14:25:59.846Z,94340.06
2023-08-01T14:28:26.241Z,94294.47
2023-08-01T14:30:53.193Z,94309.09
2023-08-01T14:33:21.996Z,94299.84
2023-08-01T14:35:48.389Z,94341.75
2023-08-01T14:38:15.255Z,94366.47
2023-08-01T14:40:45.298Z,94419.69
2023-08-01T14:43:14.078Z,94429.88
2023-08-01T14:45:41.992Z,94440.81
2023-08-01T14:48:09.114Z,94432.78
2023-08-01T14:50:35.828Z,94450.13
2023-08-01T14:53:05.436Z,94413.75
2023-08-01T14:55:31.806Z,94438.25
2023-08-01T14:57:58.174Z,94433.97
2023-08-01T15:00:25.153Z,94423.75
2023-08-01T15:02:52.758Z,94392.06
2023-08-01T15:05:19.200Z,94409.78
2023-08-01T15:07:45.736Z,94422.59
2023-08-01T15:10:12.418Z,94413.13
2023-08-01T15:12:39.253Z,94432.06
2023-08-01T15:15:06.870Z,94445.03
2023-08-01T15:17:33.323Z,94476.03
2023-08-01T15:20:00.232Z,94464.31
2023-08-01T15:22:26.608Z,94453.91
2023-08-01T15:24:52.994Z,94457.16
2023-08-01T15:27:19.800Z,94451.91
2023-08-01T15:29:48.171Z,94437.50
2023-08-01T15:32:14.573Z,94459.16
2023-08-01T15:34:41.861Z,94440.75
2023-08-01T15:37:11.086Z,94429.75
2023-08-01T15:39:37.547Z,94426.50
2023-08-01T15:42:04.649Z,94413.69
2023-08-01T15:44:32.792Z,94390.22
2023-08-01T15:46:59.538Z,94387.53
2023-08-01T15:49:26.377Z,94413.34
2023-08-01T15:51:53.262Z,94422.41
2023-08-01T15:54:19.698Z,94398.06
2023-08-01T15:56:46.103Z,94405.50
2023-08-01T15:59:12.815Z,94392.56
2023-08-01T16:01:39.390Z,94393.56
2023-08-01T16:04:06.439Z,94394.72
2023-08-01T16:06:32.880Z,94399.31
2023-08-01T16:08:59.286Z,94381.34
2023-08-01T16:11:26.013Z,94395.09
2023-08-01T16:13:52.582Z,94371.34
2023-08-01T16:16:19.466Z,94375.22
2023-08-01T16:18:46.039Z,94361.53
2023-08-01T16:21:12.450Z,94358.09
2023-08-01T16:23:39.537Z,94356.44
2023-08-01T16:26:06.269Z,94366.63
2023-08-01T16:28:32.806Z,94395.56
2023-08-01T16:30:59.588Z,94378.03
2023-08-01T16:33:26.041Z,94400.94
2023-08-01T16:35:52.407Z,94414.41
2023-08-01T16:38:19.175Z,94405.84
2023-08-01T16:40:45.700Z,94412.28
2023-08-01T16:43:13.622Z,94404.31
2023-08-01T16:45:40.393Z,94419.38
2023-08-01T16:48:06.772Z,94399.34
2023-08-01T16:50:33.471Z,94380.81
2023-08-01T16:52:59.846Z,94380.78
2023-08-01T16:55:26.259Z,94385.78
2023-08-01T16:57:53.087Z,94403.66
2023-08-01T17:00:19.819Z,94400.84
2023-08-01T17:02:46.348Z,94402.84
2023-08-01T17:05:14.554Z,94397.06
2023-08-01T17:07:40.967Z,94390.09
2023-08-01T17:10:08.181Z,94403.09
2023-08-01T17:12:34.974Z,94389.88
2023-08-01T17:15:01.576Z,94395.28
2023-08-01T17:17:28.361Z,94407.69
2023-08-01T17:19:56.897Z,94405.00
2023-08-01T17:22:27.720Z,94404.50
2023-08-01T17:24:54.138Z,94399.56
2023-08-01T17:27:20.611Z,94400.97
2023-08-01T17:29:47.902Z,94400.72
2023-08-01T17:32:14.358Z,94391.16
2023-08-01T17:34:41.389Z,94418.00
2023-08-01T17:37:07.825Z,94418.78
2023-08-01T17:39:34.806Z,94425.91
2023-08-01T17:42:01.958Z,94436.22
2023-08-01T17:44:29.986Z,94427.50
2023-08-01T17:47:00.909Z,94425.94
2023-08-01T17:49:28.034Z,94412.09
2023-08-01T17:51:54.524Z,94401.63
2023-08-01T17:54:20.904Z,94390.53
2023-08-01T17:56:47.639Z,94372.59
2023-08-01T17:59:16.167Z,94382.25
2023-08-01T18:01:42.953Z,94374.31
2023-08-01T18:04:10.326Z,94386.22
2023-08-01T18:06:36.807Z,94381.94
2023-08-01T18:09:03.365Z,94372.09
2023-08-01T18:11:31.069Z,94364.63
2023-08-01T18:14:01.345Z,94361.94
2023-08-01T18:16:28.355Z,94356.41
2023-08-01T18:18:56.095Z,94350.78
2023-08-01T18:21:22.544Z,94325.25
2023-08-01T18:23:49.643Z,94306.69
2023-08-01T18:26:24.078Z,94295.09
2023-08-01T18:28:54.590Z,94277.22
2023-08-01T18:31:25.340Z,94277.81
2023-08-01T18:33:51.812Z,94276.06
2023-08-01T18:36:21.023Z,94282.97
2023-08-01T18:38:49.526Z,94279.63
2023-08-01T18:41:16.284Z,94271.56
2023-08-01T18:43:42.792Z,94279.81
2023-08-01T18:46:09.899Z,94277.44
2023-08-01T18:48:36.394Z,94266.47
2023-08-01T18:51:13.784Z,94268.50
2023-08-01T18:53:40.582Z,94258.81
2023-08-01T18:56:13.358Z,94267.88
2023-08-01T18:58:42.463Z,94265.00
2023-08-01T19:01:19.365Z,94276.03
2023-08-01T19:03:47.066Z,94276.31
2023-08-01T19:06:17.394Z,94278.09
2023-08-01T19:08:48.191Z,94291.25
2023-08-01T19:11:15.052Z,94299.03
2023-08-01T19:13:42.629Z,94295.06
2023-08-01T19:16:09.455Z,94304.31
2023-08-01T19:18:35.867Z,94301.28
2023-08-01T19:21:03.154Z,94306.44
2023-08-01T19:23:30.321Z,94320.09
2023-08-01T19:25:57.054Z,94320.59
2023-08-01T19:28:24.336Z,94320.53
2023-08-01T19:30:50.780Z,94319.16
2023-08-01T19:33:17.214Z,94337.84
2023-08-01T19:35:45.790Z,94329.19
2023-08-01T19:38:12.477Z,94336.81
2023-08-01T19:40:43.246Z,94339.63
2023-08-01T19:43:11.267Z,94343.22
2023-08-01T19:45:39.089Z,94354.25
2023-08-01T19:48:07.065Z,94354.03
2023-08-01T19:50:34.268Z,94358.44
2023-08-01T19:53:00.729Z,94372.28
2023-08-01T19:55:28.857Z,94385.41
2023-08-01T19:57:58.275Z,94386.84
2023-08-01T20:00:25.000Z,94399.56
2023-08-01T20:02:51.557Z,94405.41
2023-08-01T20:05:18.645Z,94413.53
2023-08-01T20:07:45.105Z,94414.31
2023-08-01T20:10:11.598Z,94426.84
2023-08-01T20:12:38.066Z,94431.09
2023-08-01T20:15:07.185Z,94454.69
2023-08-01T20:17:33.647Z,94465.63
2023-08-01T20:20:00.447Z,94487.22
2023-08-01T20:22:26.879Z,94502.75
2023-08-01T20:24:53.238Z,94509.34
2023-08-01T20:27:21.116Z,94520.31
2023-08-01T20:29:47.542Z,94518.28
2023-08-01T20:32:14.222Z,94519.38
2023-08-01T20:34:41.123Z,94508.97
2023-08-01T20:37:07.553Z,94512.44
2023-08-01T20:39:34.056Z,94517.22
2023-08-01T20:42:01.170Z,94515.03
2023-08-01T20:44:27.609Z,94513.75
2023-08-01T20:46:54.037Z,94522.81
2023-08-01T20:49:21.239Z,94523.75
2023-08-01T20:51:47.642Z,94551.91
2023-08-01T20:54:14.466Z,94557.63
2023-08-01T20:56:41.494Z,94559.28
2023-08-01T20:59:07.998Z,94572.00
2023-08-01T21:01:34.539Z,94589.44
2023-08-01T21:04:01.522Z,94592.16
2023-08-01T21:06:27.988Z,94594.78
2023-08-01T21:09:04.847Z,94598.44
2023-08-01T21:11:31.913Z,94608.97
2023-08-01T21:13:58.284Z,94624.47
2023-08-01T21:16:24.681Z,94639.00
2023-08-01T21:18:51.395Z,94653.53
2023-08-01T21:21:17.961Z,94671.19
2023-08-01T21:23:44.592Z,94679.75
2023-08-01T21:26:11.629Z,94683.44
2023-08-01T21:28:38.347Z,94690.97
2023-08-01T21:31:04.876Z,94695.81
2023-08-01T21:33:31.702Z,94703.72
2023-08-01T21:35:58.449Z,94711.25
2023-08-01T21:38:24.874Z,94718.69
2023-08-01T21:40:51.274Z,94727.34
2023-08-01T21:43:19.376Z,94729.50
2023-08-01T21:45:53.602Z,94722.31
2023-08-01T21:48:20.464Z,94722.91
2023-08-01T21:50:46.888Z,94714.00
2023-08-01T21:53:13.259Z,94704.94
2023-08-01T21:55:39.666Z,94692.41
2023-08-01T21:58:06.403Z,94679.28
2023-08-01T22:00:32.766Z,94678.81
2023-08-01T22:02:59.697Z,94676.69
2023-08-01T22:05:26.133Z,94685.84
2023-08-01T22:07:52.511Z,94678.44
2023-08-01T22:10:19.216Z,94688.78
2023-08-01T22:12:45.802Z,94668.75
2023-08-01T22:15:12.349Z,94671.16
2023-08-01T22:17:41.063Z,94670.09
2023-08-01T22:20:10.232Z,94666.06
2023-08-01T22:22:36.752Z,94662.91
2023-08-01T22:25:06.252Z,94654.06
2023-08-01T22:27:34.348Z,94667.72
2023-08-01T22:30:00.923Z,94672.09
2023-08-01T22:32:29.612Z,94686.53
2023-08-01T22:34:57.056Z,94694.38
2023-08-01T22:37:23.452Z,94714.41
2023-08-01T22:39:50.469Z,94723.53
2023-08-01T22:42:16.854Z,94753.19
2023-08-01T22:44:43.238Z,94787.13
2023-08-01T22:47:10.282Z,94817.56
2023-08-01T22:49:38.213Z,94840.00
2023-08-01T22:52:06.195Z,94867.47
2023-08-01T22:54:33.233Z,94880.53
2023-08-01T22:56:59.621Z,94905.09
2023-08-01T22:59:25.977Z,94940.53
2023-08-01T23:01:53.021Z,94970.03
2023-08-01T23:04:19.392Z,95008.34
2023-08-01T23:06:45.955Z,95048.09
2023-08-01T23:09:19.030Z,95088.28
2023-08-01T23:11:45.456Z,95102.69
2023-08-01T23:14:11.923Z,95121.38
2023-08-01T23:16:38.624Z,95128.25
2023-08-01T23:19:05.013Z,95148.06
2023-08-01T23:21:32.449Z,95153.16
2023-08-01T23:24:00.610Z,95152.84
2023-08-01T23:26:28.778Z,95163.63
2023-08-01T23:28:55.236Z,95158.06
2023-08-01T23:31:22.398Z,95169.59
2023-08-01T23:33:48.860Z,95164.75
2023-08-01T23:36:15.209Z,95160.69
2023-08-01T23:38:41.938Z,95172.66
2023-08-01T23:41:12.677Z,95170.56
2023-08-01T23:43:39.864Z,95191.84
2023-08-01T23:46:07.191Z,95199.22
2023-08-01T23:48:34.137Z,95227.44
2023-08-01T23:51:00.701Z,95241.47
2023-08-01T23:53:27.916Z,95264.81
2023-08-01T23:55:59.295Z,95289.34
2023-08-01T23:58:29.072Z,95327.78
